Time,TemperatureF,DewpointF,PressureIn,WindDirection,WindDirectionDegrees,WindSpeedMPH,WindSpeedGustMPH,Humidity,HourlyPrecipIn,Conditions,Clouds,dailyrainin,SolarRadiationWatts/m^2,SoftwareType,DateUTC
2013-08-26 00:02:00,52.0,48.0,-100.00,ESE,116,2.0,4.0,85,0.00,,,0.00,0.000000,,2013-08-26 07:02:00,
2013-08-26 00:11:00,52.0,48.0,-100.00,ESE,116,2.0,4.0,85,0.00,,,0.00,0.000000,,2013-08-26 07:11:00,
2013-08-26 00:21:00,52.0,48.0,-100.00,ESE,116,2.0,4.0,85,0.00,,,0.00,0.000000,,2013-08-26 07:21:00,
2013-08-26 00:52:00,53.0,48.0,-100.00,ESE,119,2.0,3.0,84,0.00,,,0.00,0.000000,,2013-08-26 07:52:00,
2013-08-26 01:02:00,53.0,48.0,-100.00,ESE,119,2.0,3.0,84,0.00,,,0.00,0.000000,,2013-08-26 08:02:00,
2013-08-26 01:11:00,53.0,48.0,-100.00,ESE,119,2.0,3.0,84,0.00,,,0.00,0.000000,,2013-08-26 08:11:00,
2013-08-26 01:22:00,53.0,48.0,-100.00,ESE,119,2.0,3.0,84,0.00,,,0.00,0.000000,,2013-08-26 08:22:00,
2013-08-26 01:52:00,51.0,48.0,-100.00,SSE,151,1.0,6.0,88,0.00,,,0.00,0.000000,,2013-08-26 08:52:00,
2013-08-26 02:02:00,51.0,48.0,-100.00,SSE,151,1.0,6.0,88,0.00,,,0.00,0.000000,,2013-08-26 09:02:00,
2013-08-26 02:11:00,51.0,48.0,-100.00,SSE,151,1.0,6.0,88,0.00,,,0.00,0.000000,,2013-08-26 09:11:00,
2013-08-26 02:21:00,51.0,48.0,-100.00,SSE,151,1.0,6.0,88,0.00,,,0.00,0.000000,,2013-08-26 09:21:00,
2013-08-26 02:54:00,50.0,47.0,-100.00,East,82,3.0,4.0,90,0.00,,,0.00,0.000000,,2013-08-26 09:54:00,
2013-08-26 03:03:00,50.0,47.0,-100.00,East,82,3.0,4.0,90,0.00,,,0.00,0.000000,,2013-08-26 10:03:00,
2013-08-26 03:12:00,50.0,47.0,-100.00,East,82,3.0,4.0,90,0.00,,,0.00,0.000000,,2013-08-26 10:12:00,
2013-08-26 03:22:00,50.0,47.0,-100.00,East,82,3.0,4.0,90,0.00,,,0.00,0.000000,,2013-08-26 10:22:00,
2013-08-26 03:52:00,50.0,47.0,-100.00,SSE,168,0.0,5.0,90,0.00,,,0.00,0.000000,,2013-08-26 10:52:00,
2013-08-26 04:02:00,50.0,47.0,-100.00,SSE,168,0.0,5.0,90,0.00,,,0.00,0.000000,,2013-08-26 11:02:00,
2013-08-26 04:12:00,50.0,47.0,-100.00,SSE,168,0.0,5.0,90,0.00,,,0.00,0.000000,,2013-08-26 11:12:00,
2013-08-26 04:22:00,50.0,47.0,-100.00,SSE,168,0.0,5.0,90,0.00,,,0.00,0.000000,,2013-08-26 11:22:00,
2013-08-26 04:52:00,51.0,45.0,-100.00,South,176,1.0,4.0,80,0.00,,,0.00,0.000000,,2013-08-26 11:52:00,
2013-08-26 05:01:00,51.0,45.0,-100.00,South,176,1.0,4.0,80,0.00,,,0.00,0.000000,,2013-08-26 12:01:00,
2013-08-26 05:12:00,51.0,45.0,-100.00,South,176,1.0,4.0,80,0.00,,,0.00,0.000000,,2013-08-26 12:12:00,
2013-08-26 05:21:00,51.0,45.0,-100.00,South,176,1.0,4.0,80,0.00,,,0.00,0.000000,,2013-08-26 12:21:00,
2013-08-26 05:52:00,49.0,42.0,-100.00,WSW,254,0.0,4.0,78,0.00,,,0.00,0.000000,,2013-08-26 12:52:00,
2013-08-26 06:02:00,49.0,42.0,-100.00,WSW,254,0.0,4.0,78,0.00,,,0.00,0.000000,,2013-08-26 13:02:00,
2013-08-26 06:11:00,49.0,42.0,-100.00,WSW,254,0.0,4.0,78,0.00,,,0.00,0.000000,,2013-08-26 13:11:00,
2013-08-26 06:21:00,49.0,42.0,-100.00,WSW,254,0.0,4.0,78,0.00,,,0.00,0.000000,,2013-08-26 13:21:00,
2013-08-26 06:52:00,49.0,42.0,-100.00,SSE,149,2.0,4.0,76,0.00,,,0.00,1.000000,,2013-08-26 13:52:00,
2013-08-26 07:02:00,49.0,42.0,-100.00,SSE,149,2.0,4.0,76,0.00,,,0.00,1.000000,,2013-08-26 14:02:00,
2013-08-26 07:11:00,49.0,42.0,-100.00,SSE,149,2.0,4.0,76,0.00,,,0.00,1.000000,,2013-08-26 14:11:00,
2013-08-26 07:22:00,49.0,42.0,-100.00,SSE,149,2.0,4.0,76,0.00,,,0.00,1.000000,,2013-08-26 14:22:00,
2013-08-26 07:52:00,50.0,41.0,-100.00,SSE,164,1.0,3.0,71,0.00,,,0.00,29.000000,,2013-08-26 14:52:00,
2013-08-26 08:01:00,50.0,41.0,-100.00,SSE,164,1.0,3.0,71,0.00,,,0.00,29.000000,,2013-08-26 15:01:00,
2013-08-26 08:12:00,50.0,41.0,-100.00,SSE,164,1.0,3.0,71,0.00,,,0.00,29.000000,,2013-08-26 15:12:00,
2013-08-26 08:22:00,50.0,41.0,-100.00,SSE,164,1.0,3.0,71,0.00,,,0.00,29.000000,,2013-08-26 15:22:00,
2013-08-26 09:59:00,56.0,42.0,-100.00,East,101,1.0,4.0,60,-99.99,,,0.00,155.000000,,2013-08-26 16:59:00,
2013-08-26 10:06:00,56.0,42.0,-100.00,East,101,1.0,4.0,60,-99.99,,,0.00,155.000000,,2013-08-26 17:06:00,
2013-08-26 10:12:00,56.0,42.0,-100.00,East,101,1.0,4.0,60,-99.99,,,0.00,155.000000,,2013-08-26 17:12:00,
2013-08-26 10:24:00,56.0,42.0,-100.00,East,101,1.0,4.0,60,-99.99,,,0.00,155.000000,,2013-08-26 17:24:00,
2013-08-26 10:53:00,60.0,42.0,-100.00,NNW,335,2.0,5.0,52,0.00,,,0.00,299.000000,,2013-08-26 17:53:00,
2013-08-26 11:01:00,60.0,42.0,-100.00,NNW,335,2.0,5.0,52,0.00,,,0.00,299.000000,,2013-08-26 18:01:00,
2013-08-26 11:12:00,60.0,42.0,-100.00,NNW,335,2.0,5.0,52,0.00,,,0.00,299.000000,,2013-08-26 18:12:00,
2013-08-26 11:21:00,60.0,42.0,-100.00,NNW,335,2.0,5.0,52,0.00,,,0.00,299.000000,,2013-08-26 18:21:00,
2013-08-26 11:52:00,62.0,45.0,-100.00,North,354,3.0,6.0,54,0.00,,,0.00,528.000000,,2013-08-26 18:52:00,
2013-08-26 12:01:00,62.0,45.0,-100.00,North,354,3.0,6.0,54,0.00,,,0.00,528.000000,,2013-08-26 19:01:00,
2013-08-26 12:11:00,62.0,45.0,-100.00,North,354,3.0,6.0,54,0.00,,,0.00,528.000000,,2013-08-26 19:11:00,
2013-08-26 12:22:00,62.0,45.0,-100.00,North,354,3.0,6.0,54,0.00,,,0.00,528.000000,,2013-08-26 19:22:00,
2013-08-26 12:52:00,62.0,47.0,-100.00,North,5,5.0,11.0,59,0.00,,,0.00,533.000000,,2013-08-26 19:52:00,
2013-08-26 13:02:00,62.0,47.0,-100.00,North,5,5.0,11.0,59,0.00,,,0.00,533.000000,,2013-08-26 20:02:00,
2013-08-26 13:11:00,62.0,47.0,-100.00,North,5,5.0,11.0,59,0.00,,,0.00,533.000000,,2013-08-26 20:11:00,
2013-08-26 13:21:00,62.0,47.0,-100.00,North,5,5.0,11.0,59,0.00,,,0.00,533.000000,,2013-08-26 20:21:00,
2013-08-26 13:52:00,63.0,45.0,-100.00,SSW,200,4.0,14.0,52,0.00,,,0.00,489.000000,,2013-08-26 20:52:00,
2013-08-26 14:01:00,63.0,45.0,-100.00,SSW,200,4.0,14.0,52,0.00,,,0.00,489.000000,,2013-08-26 21:01:00,
2013-08-26 14:11:00,63.0,45.0,-100.00,SSW,200,4.0,14.0,52,0.00,,,0.00,489.000000,,2013-08-26 21:11:00,
2013-08-26 14:22:00,63.0,45.0,-100.00,SSW,200,4.0,14.0,52,0.00,,,0.00,489.000000,,2013-08-26 21:22:00,
2013-08-26 14:25:00,63.0,45.0,-100.00,South,179,2.0,20.0,52,0.00,,,0.00,279.000000,,2013-08-26 21:25:00,
2013-08-26 14:55:00,63.0,45.0,-100.00,South,179,2.0,20.0,52,0.00,,,0.00,279.000000,,2013-08-26 21:55:00,
2013-08-26 15:07:00,63.0,45.0,-100.00,South,179,2.0,20.0,52,0.00,,,0.00,279.000000,,2013-08-26 22:07:00,
2013-08-26 15:16:00,63.0,45.0,-100.00,South,179,2.0,20.0,52,0.00,,,0.00,279.000000,,2013-08-26 22:16:00,
2013-08-26 15:53:00,56.0,48.0,-100.00,South,180,3.0,18.0,74,0.01,,,0.01,197.000000,,2013-08-26 22:53:00,
2013-08-26 16:03:00,56.0,48.0,-100.00,South,180,3.0,18.0,74,0.01,,,0.01,197.000000,,2013-08-26 23:03:00,
2013-08-26 16:12:00,56.0,48.0,-100.00,South,180,3.0,18.0,74,0.01,,,0.01,197.000000,,2013-08-26 23:12:00,
2013-08-26 16:21:00,56.0,48.0,-100.00,South,180,3.0,18.0,74,0.01,,,0.01,197.000000,,2013-08-26 23:21:00,
2013-08-26 16:52:00,60.0,48.0,-100.00,South,172,4.0,12.0,65,0.02,,,0.03,361.000000,,2013-08-26 23:52:00,
2013-08-26 17:01:00,60.0,48.0,-100.00,South,172,4.0,12.0,65,0.02,,,0.03,361.000000,,2013-08-27 00:01:00,
2013-08-26 17:11:00,60.0,48.0,-100.00,South,172,4.0,12.0,65,0.02,,,0.03,361.000000,,2013-08-27 00:11:00,
2013-08-26 17:21:00,60.0,48.0,-100.00,South,172,4.0,12.0,65,0.02,,,0.03,361.000000,,2013-08-27 00:21:00,
2013-08-26 17:52:00,54.0,50.0,-100.00,South,184,4.0,14.0,85,0.01,,,0.04,259.000000,,2013-08-27 00:52:00,
2013-08-26 18:01:00,54.0,50.0,-100.00,South,184,4.0,14.0,85,0.01,,,0.04,259.000000,,2013-08-27 01:01:00,
2013-08-26 18:12:00,54.0,50.0,-100.00,South,184,4.0,14.0,85,0.01,,,0.04,259.000000,,2013-08-27 01:12:00,
2013-08-26 18:21:00,54.0,50.0,-100.00,South,184,4.0,14.0,85,0.01,,,0.04,259.000000,,2013-08-27 01:21:00,
2013-08-26 18:52:00,54.0,50.0,-100.00,South,170,6.0,16.0,85,0.02,,,0.06,186.000000,,2013-08-27 01:52:00,
2013-08-26 19:02:00,54.0,50.0,-100.00,South,170,6.0,16.0,85,0.02,,,0.06,186.000000,,2013-08-27 02:02:00,
2013-08-26 19:12:00,54.0,50.0,-100.00,South,170,6.0,16.0,85,0.02,,,0.06,186.000000,,2013-08-27 02:12:00,
2013-08-26 19:21:00,54.0,50.0,-100.00,South,170,6.0,16.0,85,0.02,,,0.06,186.000000,,2013-08-27 02:21:00,
2013-08-26 19:52:00,52.0,49.0,-100.00,South,174,4.0,12.0,91,0.01,,,0.07,63.000000,,2013-08-27 02:52:00,
2013-08-26 20:02:00,52.0,49.0,-100.00,South,174,4.0,12.0,91,0.01,,,0.07,63.000000,,2013-08-27 03:02:00,
2013-08-26 20:12:00,52.0,49.0,-100.00,South,174,4.0,12.0,91,0.01,,,0.07,63.000000,,2013-08-27 03:12:00,
2013-08-26 20:22:00,52.0,49.0,-100.00,South,174,4.0,12.0,91,0.01,,,0.07,63.000000,,2013-08-27 03:22:00,
2013-08-26 20:25:00,52.0,50.0,-100.00,SSE,163,5.0,10.0,93,0.01,,,0.08,9.000000,,2013-08-27 03:25:00,
2013-08-26 20:58:00,52.0,50.0,-100.00,SSE,163,5.0,10.0,93,0.01,,,0.08,9.000000,,2013-08-27 03:58:00,
2013-08-26 21:08:00,52.0,50.0,-100.00,SSE,163,5.0,10.0,93,0.01,,,0.08,9.000000,,2013-08-27 04:08:00,
2013-08-26 21:18:00,52.0,50.0,-100.00,SSE,163,5.0,10.0,93,0.01,,,0.08,9.000000,,2013-08-27 04:18:00,
2013-08-26 21:54:00,53.0,50.0,-100.00,South,176,4.0,12.0,88,0.00,,,0.08,0.000000,,2013-08-27 04:54:00,
2013-08-26 22:05:00,53.0,50.0,-100.00,South,176,4.0,12.0,88,0.00,,,0.08,0.000000,,2013-08-27 05:05:00,
2013-08-26 22:13:00,53.0,50.0,-100.00,South,176,4.0,12.0,88,0.00,,,0.08,0.000000,,2013-08-27 05:13:00,
2013-08-26 22:23:00,53.0,50.0,-100.00,South,176,4.0,12.0,88,0.00,,,0.08,0.000000,,2013-08-27 05:23:00,
2013-08-26 22:52:00,53.0,49.0,-100.00,South,177,4.0,14.0,86,0.00,,,0.08,0.000000,,2013-08-27 05:52:00,
2013-08-26 23:02:00,53.0,49.0,-100.00,South,177,4.0,14.0,86,0.00,,,0.08,0.000000,,2013-08-27 06:02:00,
2013-08-26 23:12:00,53.0,49.0,-100.00,South,177,4.0,14.0,86,0.00,,,0.08,0.000000,,2013-08-27 06:12:00,
2013-08-26 23:21:00,53.0,49.0,-100.00,South,177,4.0,14.0,86,0.00,,,0.08,0.000000,,2013-08-27 06:21:00,
2013-08-26 23:52:00,54.0,50.0,-100.00,SSE,156,2.0,8.0,85,0.00,,,0.08,0.000000,,2013-08-27 06:52:00,